sensor_id;sensor_type;location;lat;lon;timestamp;pressure;altitude;pressure_sealevel;temperature;humidity
68941;BME280;55982;51.476;7.552;2023-02-23T00:01:53;99422.16;;;8.92;100.00
68941;BME280;55982;51.476;7.552;2023-02-23T00:04:18;99426.34;;;8.98;100.00
68941;BME280;55982;51.476;7.552;2023-02-23T00:06:44;99427.28;;;8.95;100.00
68941;BME280;55982;51.476;7.552;2023-02-23T00:09:09;99424.66;;;8.95;100.00
68941;BME280;55982;51.476;7.552;2023-02-23T00:11:46;99422.97;;;8.94;100.00
68941;BME280;55982;51.476;7.552;2023-02-23T00:14:11;99418.66;;;8.93;100.00
68941;BME280;55982;51.476;7.552;2023-02-23T00:16:37;99420.44;;;8.91;100.00
68941;BME280;55982;51.476;7.552;2023-02-23T00:19:02;99420.44;;;8.91;100.00
68941;BME280;55982;51.476;7.552;2023-02-23T00:21:32;99422.16;;;8.92;100.00
68941;BME280;55982;51.476;7.552;2023-02-23T00:24:03;99424.72;;;8.94;100.00
68941;BME280;55982;51.476;7.552;2023-02-23T00:26:30;99420.44;;;8.91;100.00
68941;BME280;55982;51.476;7.552;2023-02-23T00:28:58;99414.22;;;8.95;100.00
68941;BME280;55982;51.476;7.552;2023-02-23T00:31:24;99419.44;;;8.95;100.00
68941;BME280;55982;51.476;7.552;2023-02-23T00:33:54;99413.41;;;8.95;100.00
68941;BME280;55982;51.476;7.552;2023-02-23T00:36:21;99416.84;;;8.95;100.00
68941;BME280;55982;51.476;7.552;2023-02-23T00:38:47;99416.66;;;9.01;100.00
68941;BME280;55982;51.476;7.552;2023-02-23T00:41:17;99410.59;;;9.01;100.00
68941;BME280;55982;51.476;7.552;2023-02-23T00:43:52;99414.94;;;9.00;100.00
68941;BME280;55982;51.476;7.552;2023-02-23T00:46:19;99415.03;;;8.97;100.00
68941;BME280;55982;51.476;7.552;2023-02-23T00:48:48;99417.69;;;8.96;100.00
68941;BME280;55982;51.476;7.552;2023-02-23T00:51:13;99413.22;;;8.99;100.00
68941;BME280;55982;51.476;7.552;2023-02-23T00:53:40;99415.03;;;8.97;100.00
68941;BME280;55982;51.476;7.552;2023-02-23T00:56:06;99413.34;;;8.96;100.00
68941;BME280;55982;51.476;7.552;2023-02-23T00:58:32;99409.81;;;8.97;100.00
68941;BME280;55982;51.476;7.552;2023-02-23T01:00:57;99408.00;;;8.99;100.00
68941;BME280;55982;51.476;7.552;2023-02-23T01:03:26;99420.16;;;9.00;100.00
68941;BME280;55982;51.476;7.552;2023-02-23T01:05:51;99420.22;;;8.99;100.00
68941;BME280;55982;51.476;7.552;2023-02-23T01:08:17;99416.84;;;8.95;100.00
68941;BME280;55982;51.476;7.552;2023-02-23T01:10:42;99413.22;;;8.99;100.00
68941;BME280;55982;51.476;7.552;2023-02-23T01:13:09;99412.44;;;8.97;100.00
68941;BME280;55982;51.476;7.552;2023-02-23T01:15:39;99413.41;;;8.95;100.00
68941;BME280;55982;51.476;7.552;2023-02-23T01:18:05;99412.44;;;8.97;100.00
68941;BME280;55982;51.476;7.552;2023-02-23T01:20:33;99412.44;;;8.97;100.00
68941;BME280;55982;51.476;7.552;2023-02-23T01:23:00;99414.22;;;8.97;100.00
68941;BME280;55982;51.476;7.552;2023-02-23T01:25:25;99411.63;;;8.95;100.00
68941;BME280;55982;51.476;7.552;2023-02-23T01:27:53;99410.00;;;8.91;100.00
68941;BME280;55982;51.476;7.552;2023-02-23T01:30:18;99418.66;;;8.93;100.00
68941;BME280;55982;51.476;7.552;2023-02-23T01:32:43;99413.50;;;8.92;100.00
68941;BME280;55982;51.476;7.552;2023-02-23T01:35:10;99408.13;;;8.96;100.00
68941;BME280;55982;51.476;7.552;2023-02-23T01:37:37;99408.22;;;8.93;100.00
68941;BME280;55982;51.476;7.552;2023-02-23T01:40:06;99410.88;;;8.92;100.00
68941;BME280;55982;51.476;7.552;2023-02-23T01:42:37;99412.59;;;8.93;100.00
68941;BME280;55982;51.476;7.552;2023-02-23T01:47:40;99412.63;;;8.91;100.00
68941;BME280;55982;51.476;7.552;2023-02-23T01:50:08;99410.00;;;8.91;100.00
68941;BME280;55982;51.476;7.552;2023-02-23T01:52:35;99407.41;;;8.91;100.00
68941;BME280;55982;51.476;7.552;2023-02-23T01:55:01;99407.53;;;8.88;100.00
68941;BME280;55982;51.476;7.552;2023-02-23T01:57:26;99409.06;;;8.94;100.00
68941;BME280;55982;51.476;7.552;2023-02-23T01:59:52;99410.00;;;8.91;100.00
68941;BME280;55982;51.476;7.552;2023-02-23T02:02:18;99404.91;;;8.88;100.00
68941;BME280;55982;51.476;7.552;2023-02-23T02:04:45;99408.22;;;8.93;100.00
68941;BME280;55982;51.476;7.552;2023-02-23T02:07:14;99409.25;;;8.89;100.00
68941;BME280;55982;51.476;7.552;2023-02-23T02:09:40;99398.81;;;8.89;100.00
68941;BME280;55982;51.476;7.552;2023-02-23T02:12:25;99403.09;;;8.90;100.00
68941;BME280;55982;51.476;7.552;2023-02-23T02:14:51;99397.09;;;8.88;100.00
68941;BME280;55982;51.476;7.552;2023-02-23T02:27:45;99397.16;;;8.87;100.00
68941;BME280;55982;51.476;7.552;2023-02-23T02:31:01;99406.84;;;8.83;100.00
68941;BME280;55982;51.476;7.552;2023-02-23T02:41:16;99389.47;;;8.82;100.00
68941;BME280;55982;51.476;7.552;2023-02-23T02:46:25;99392.88;;;8.84;100.00
68941;BME280;55982;51.476;7.552;2023-02-23T02:51:27;99386.78;;;8.85;100.00
68941;BME280;55982;51.476;7.552;2023-02-23T02:54:00;99384.16;;;8.85;100.00
68941;BME280;55982;51.476;7.552;2023-02-23T02:56:31;99380.75;;;8.83;100.00
68941;BME280;55982;51.476;7.552;2023-02-23T02:59:00;99382.34;;;8.87;100.00
68941;BME280;55982;51.476;7.552;2023-02-23T03:01:27;99383.16;;;8.89;100.00
68941;BME280;55982;51.476;7.552;2023-02-23T03:04:23;99383.25;;;8.86;100.00
68941;BME280;55982;51.476;7.552;2023-02-23T03:07:09;99379.03;;;8.82;100.00
68941;BME280;55982;51.476;7.552;2023-02-23T03:10:05;99378.16;;;8.83;100.00
68941;BME280;55982;51.476;7.552;2023-02-23T03:15:49;99384.97;;;8.87;100.00
68941;BME280;55982;51.476;7.552;2023-02-23T03:21:26;99382.34;;;8.87;100.00
68941;BME280;55982;51.476;7.552;2023-02-23T03:27:06;99381.50;;;8.87;100.00
68941;BME280;55982;51.476;7.552;2023-02-23T03:29:57;99384.91;;;8.89;100.00
68941;BME280;55982;51.476;7.552;2023-02-23T03:32:55;99379.75;;;8.87;100.00
68941;BME280;55982;51.476;7.552;2023-02-23T03:35:54;99382.44;;;8.84;100.00
68941;BME280;55982;51.476;7.552;2023-02-23T03:41:27;99385.00;;;8.86;100.00
68941;BME280;55982;51.476;7.552;2023-02-23T03:44:12;99385.97;;;8.83;100.00
68941;BME280;55982;51.476;7.552;2023-02-23T03:46:58;99389.56;;;8.79;100.00
68941;BME280;55982;51.476;7.552;2023-02-23T03:49:43;99383.44;;;8.80;100.00
68941;BME280;55982;51.476;7.552;2023-02-23T03:52:33;99387.78;;;8.81;100.00
68941;BME280;55982;51.476;7.552;2023-02-23T03:55:21;99387.78;;;8.81;100.00
68941;BME280;55982;51.476;7.552;2023-02-23T03:58:08;99389.56;;;8.79;100.00
68941;BME280;55982;51.476;7.552;2023-02-23T04:00:53;99386.78;;;8.84;100.00
68941;BME280;55982;51.476;7.552;2023-02-23T04:03:40;99382.56;;;8.81;100.00
68941;BME280;55982;51.476;7.552;2023-02-23T04:06:27;99385.78;;;8.89;100.00
68941;BME280;55982;51.476;7.552;2023-02-23T04:09:15;99388.38;;;8.89;100.00
68941;BME280;55982;51.476;7.552;2023-02-23T04:15:10;99393.38;;;8.95;100.00
68941;BME280;55982;51.476;7.552;2023-02-23T04:17:44;99389.75;;;8.99;100.00
68941;BME280;55982;51.476;7.552;2023-02-23T04:20:10;99397.69;;;8.96;100.00
68941;BME280;55982;51.476;7.552;2023-02-23T04:22:38;99399.50;;;8.94;100.00
68941;BME280;55982;51.476;7.552;2023-02-23T04:25:04;99393.47;;;8.92;100.00
68941;BME280;55982;51.476;7.552;2023-02-23T04:27:33;99399.50;;;8.94;100.00
68941;BME280;55982;51.476;7.552;2023-02-23T04:29:58;99399.50;;;8.94;100.00
68941;BME280;55982;51.476;7.552;2023-02-23T04:32:24;99392.69;;;8.90;100.00
68941;BME280;55982;51.476;7.552;2023-02-23T04:34:49;99404.03;;;8.89;100.00
68941;BME280;55982;51.476;7.552;2023-02-23T04:37:14;99402.38;;;8.87;100.00
68941;BME280;55982;51.476;7.552;2023-02-23T04:39:40;99396.28;;;8.86;100.00
68941;BME280;55982;51.476;7.552;2023-02-23T04:42:12;99399.69;;;8.88;100.00
68941;BME280;55982;51.476;7.552;2023-02-23T04:44:37;99399.69;;;8.88;100.00
68941;BME280;55982;51.476;7.552;2023-02-23T04:47:03;99404.06;;;8.88;100.00
68941;BME280;55982;51.476;7.552;2023-02-23T04:49:28;99406.72;;;8.86;100.00
68941;BME280;55982;51.476;7.552;2023-02-23T04:51:54;99405.03;;;8.85;100.00
68941;BME280;55982;51.476;7.552;2023-02-23T04:54:19;99404.91;;;8.88;100.00
68941;BME280;55982;51.476;7.552;2023-02-23T04:56:45;99409.06;;;8.94;100.00
68941;BME280;55982;51.476;7.552;2023-02-23T04:59:10;99405.56;;;8.95;100.00
68941;BME280;55982;51.476;7.552;2023-02-23T05:01:36;99406.84;;;8.83;100.00
68941;BME280;55982;51.476;7.552;2023-02-23T05:04:01;99410.31;;;8.82;100.00
68941;BME280;55982;51.476;7.552;2023-02-23T05:06:27;99409.25;;;8.89;100.00
68941;BME280;55982;51.476;7.552;2023-02-23T05:08:52;99404.09;;;8.86;100.00
68941;BME280;55982;51.476;7.552;2023-02-23T05:11:18;99405.78;;;8.89;100.00
68941;BME280;55982;51.476;7.552;2023-02-23T05:13:43;99413.53;;;8.90;100.00
68941;BME280;55982;51.476;7.552;2023-02-23T05:16:08;99408.31;;;8.90;100.00
68941;BME280;55982;51.476;7.552;2023-02-23T05:18:34;99405.22;;;8.79;100.00
68941;BME280;55982;51.476;7.552;2023-02-23T05:21:06;99407.88;;;8.78;100.00
68941;BME280;55982;51.476;7.552;2023-02-23T05:23:33;99407.84;;;8.79;100.00
68941;BME280;55982;51.476;7.552;2023-02-23T05:26:00;99410.31;;;8.82;100.00
68941;BME280;55982;51.476;7.552;2023-02-23T05:28:26;99415.66;;;8.79;100.00
68941;BME280;55982;51.476;7.552;2023-02-23T05:30:51;99413.25;;;8.73;100.00
68941;BME280;55982;51.476;7.552;2023-02-23T05:33:19;99415.75;;;8.76;100.00
68941;BME280;55982;51.476;7.552;2023-02-23T05:35:46;99415.53;;;8.82;100.00
68941;BME280;55982;51.476;7.552;2023-02-23T05:38:11;99413.00;;;8.81;100.00
68941;BME280;55982;51.476;7.552;2023-02-23T05:40:36;99416.59;;;8.77;100.00
68941;BME280;55982;51.476;7.552;2023-02-23T05:43:02;99411.63;;;8.69;100.00
68941;BME280;55982;51.476;7.552;2023-02-23T05:45:27;99415.75;;;8.76;100.00
68941;BME280;55982;51.476;7.552;2023-02-23T05:47:53;99414.03;;;8.75;100.00
68941;BME280;55982;51.476;7.552;2023-02-23T05:50:19;99414.00;;;8.77;100.00
68941;BME280;55982;51.476;7.552;2023-02-23T05:52:47;99420.38;;;8.68;100.00
68941;BME280;55982;51.476;7.552;2023-02-23T05:55:15;99420.16;;;8.74;100.00
68941;BME280;55982;51.476;7.552;2023-02-23T05:57:44;99423.88;;;8.67;100.00
68941;BME280;55982;51.476;7.552;2023-02-23T06:00:10;99422.75;;;8.74;100.00
68941;BME280;55982;51.476;7.552;2023-02-23T06:02:35;99422.88;;;8.71;100.00
68941;BME280;55982;51.476;7.552;2023-02-23T06:05:01;99431.50;;;8.73;100.00
68941;BME280;55982;51.476;7.552;2023-02-23T06:07:26;99429.78;;;8.72;100.00
68941;BME280;55982;51.476;7.552;2023-02-23T06:09:52;99422.97;;;8.68;100.00
68941;BME280;55982;51.476;7.552;2023-02-23T06:12:20;99430.06;;;8.63;100.00
68941;BME280;55982;51.476;7.552;2023-02-23T06:14:47;99437.66;;;8.71;100.00
68941;BME280;55982;51.476;7.552;2023-02-23T06:17:15;99431.69;;;8.67;100.00
68941;BME280;55982;51.476;7.552;2023-02-23T06:19:40;99438.66;;;8.67;100.00
68941;BME280;55982;51.476;7.552;2023-02-23T06:22:08;99437.09;;;8.61;100.00
68941;BME280;55982;51.476;7.552;2023-02-23T06:24:34;99437.09;;;8.61;100.00
68941;BME280;55982;51.476;7.552;2023-02-23T06:26:59;99447.44;;;8.64;100.00
68941;BME280;55982;51.476;7.552;2023-02-23T06:29:25;99445.81;;;8.60;100.00
68941;BME280;55982;51.476;7.552;2023-02-23T06:31:50;99447.44;;;8.64;100.00
68941;BME280;55982;51.476;7.552;2023-02-23T06:34:16;99441.19;;;8.70;100.00
68941;BME280;55982;51.476;7.552;2023-02-23T06:36:41;99447.44;;;8.64;100.00
68941;BME280;55982;51.476;7.552;2023-02-23T06:39:08;99445.72;;;8.63;100.00
68941;BME280;55982;51.476;7.552;2023-02-23T06:41:34;99451.94;;;8.59;100.00
68941;BME280;55982;51.476;7.552;2023-02-23T06:43:59;99456.16;;;8.63;100.00
68941;BME280;55982;51.476;7.552;2023-02-23T06:46:25;99456.28;;;8.59;100.00
68941;BME280;55982;51.476;7.552;2023-02-23T06:48:53;99457.94;;;8.61;100.00
68941;BME280;55982;51.476;7.552;2023-02-23T06:51:19;99459.66;;;8.62;100.00
68941;BME280;55982;51.476;7.552;2023-02-23T06:53:45;99467.50;;;8.61;100.00
68941;BME280;55982;51.476;7.552;2023-02-23T06:56:10;99468.38;;;8.61;100.00
68941;BME280;55982;51.476;7.552;2023-02-23T06:58:38;99473.50;;;8.64;100.00
68941;BME280;55982;51.476;7.552;2023-02-23T07:01:03;99470.81;;;8.67;100.00
68941;BME280;55982;51.476;7.552;2023-02-23T07:03:31;99474.97;;;8.73;100.00
68941;BME280;55982;51.476;7.552;2023-02-23T07:05:57;99480.41;;;8.65;100.00
68941;BME280;55982;51.476;7.552;2023-02-23T07:08:22;99480.41;;;8.65;100.00
68941;BME280;55982;51.476;7.552;2023-02-23T07:10:48;99482.94;;;8.68;100.00
68941;BME280;55982;51.476;7.552;2023-02-23T07:13:13;99481.34;;;8.64;100.00
68941;BME280;55982;51.476;7.552;2023-02-23T07:15:39;99482.16;;;8.66;100.00
68941;BME280;55982;51.476;7.552;2023-02-23T07:18:05;99488.38;;;8.61;100.00
68941;BME280;55982;51.476;7.552;2023-02-23T07:20:30;99492.66;;;8.63;100.00
68941;BME280;55982;51.476;7.552;2023-02-23T07:22:59;99490.16;;;8.60;100.00
68941;BME280;55982;51.476;7.552;2023-02-23T07:25:27;99489.16;;;8.64;100.00
68941;BME280;55982;51.476;7.552;2023-02-23T07:27:53;99494.22;;;8.69;100.00
68941;BME280;55982;51.476;7.552;2023-02-23T07:30:19;99493.41;;;8.67;100.00
68941;BME280;55982;51.476;7.552;2023-02-23T07:32:48;99493.69;;;8.58;100.00
68941;BME280;55982;51.476;7.552;2023-02-23T07:35:13;99505.88;;;8.57;100.00
68941;BME280;55982;51.476;7.552;2023-02-23T07:37:39;99507.72;;;8.54;100.00
68941;BME280;55982;51.476;7.552;2023-02-23T07:40:06;99500.75;;;8.54;100.00
68941;BME280;55982;51.476;7.552;2023-02-23T07:42:32;99503.19;;;8.60;100.00
68941;BME280;55982;51.476;7.552;2023-02-23T07:44:57;99509.91;;;8.67;100.00
68941;BME280;55982;51.476;7.552;2023-02-23T07:47:23;99511.72;;;8.65;100.00
68941;BME280;55982;51.476;7.552;2023-02-23T07:49:55;99513.47;;;8.65;100.00
68941;BME280;55982;51.476;7.552;2023-02-23T07:52:20;99517.91;;;8.61;100.00
68941;BME280;55982;51.476;7.552;2023-02-23T07:54:46;99505.50;;;8.69;100.00
68941;BME280;55982;51.476;7.552;2023-02-23T07:57:11;99515.22;;;8.64;100.00
68941;BME280;55982;51.476;7.552;2023-02-23T07:59:37;99517.78;;;8.66;100.00
68941;BME280;55982;51.476;7.552;2023-02-23T08:02:03;99524.69;;;8.67;100.00
68941;BME280;55982;51.476;7.552;2023-02-23T08:04:29;99522.31;;;8.59;100.00
68941;BME280;55982;51.476;7.552;2023-02-23T08:06:54;99526.25;;;8.72;100.00
68941;BME280;55982;51.476;7.552;2023-02-23T08:09:20;99532.28;;;8.74;100.00
68941;BME280;55982;51.476;7.552;2023-02-23T08:11:45;99530.66;;;8.70;100.00
68941;BME280;55982;51.476;7.552;2023-02-23T08:14:11;99532.38;;;8.71;100.00
68941;BME280;55982;51.476;7.552;2023-02-23T08:16:37;99532.38;;;8.71;100.00
68941;BME280;55982;51.476;7.552;2023-02-23T08:19:02;99534.31;;;8.65;100.00
68941;BME280;55982;51.476;7.552;2023-02-23T08:21:31;99527.00;;;8.77;100.00
68941;BME280;55982;51.476;7.552;2023-02-23T08:23:57;99541.09;;;8.70;100.00
68941;BME280;55982;51.476;7.552;2023-02-23T08:26:25;99532.38;;;8.71;100.00
68941;BME280;55982;51.476;7.552;2023-02-23T08:28:54;99536.78;;;8.69;100.00
68941;BME280;55982;51.476;7.552;2023-02-23T08:31:19;99534.38;;;8.63;100.00
68941;BME280;55982;51.476;7.552;2023-02-23T08:33:51;99543.19;;;8.59;100.00
68941;BME280;55982;51.476;7.552;2023-02-23T08:36:20;99538.00;;;8.58;100.00
68941;BME280;55982;51.476;7.552;2023-02-23T08:38:46;99546.53;;;8.64;100.00
68941;BME280;55982;51.476;7.552;2023-02-23T08:41:12;99546.53;;;8.64;100.00
68941;BME280;55982;51.476;7.552;2023-02-23T08:43:37;99547.94;;;8.74;100.00
68941;BME280;55982;51.476;7.552;2023-02-23T08:46:03;99555.72;;;8.76;100.00
68941;BME280;55982;51.476;7.552;2023-02-23T08:48:29;99556.31;;;8.85;100.00
68941;BME280;55982;51.476;7.552;2023-02-23T08:50:55;99547.50;;;8.89;100.00
68941;BME280;55982;51.476;7.552;2023-02-23T08:53:20;99552.59;;;8.92;100.00
68941;BME280;55982;51.476;7.552;2023-02-23T08:55:47;99555.09;;;8.95;100.00
68941;BME280;55982;51.476;7.552;2023-02-23T08:58:12;99557.94;;;8.89;100.00
68941;BME280;55982;51.476;7.552;2023-02-23T09:00:40;99559.03;;;8.81;100.00
68941;BME280;55982;51.476;7.552;2023-02-23T09:03:05;99556.31;;;8.85;100.00
68941;BME280;55982;51.476;7.552;2023-02-23T09:05:31;99558.88;;;8.87;100.00
68941;BME280;55982;51.476;7.552;2023-02-23T09:07:59;99566.81;;;8.82;100.00
68941;BME280;55982;51.476;7.552;2023-02-23T09:10:25;99565.13;;;8.81;100.00
68941;BME280;55982;51.476;7.552;2023-02-23T09:12:53;99564.06;;;8.87;100.00
68941;BME280;55982;51.476;7.552;2023-02-23T09:15:18;99571.63;;;8.96;100.00
68941;BME280;55982;51.476;7.552;2023-02-23T09:17:44;99569.13;;;8.93;100.00
68941;BME280;55982;51.476;7.552;2023-02-23T09:20:11;99567.88;;;9.04;100.00
68941;BME280;55982;51.476;7.552;2023-02-23T09:22:40;99571.38;;;9.03;100.00
68941;BME280;55982;51.476;7.552;2023-02-23T09:25:15;99572.13;;;9.07;100.00
68941;BME280;55982;51.476;7.552;2023-02-23T09:27:43;99574.28;;;8.94;100.00
68941;BME280;55982;51.476;7.552;2023-02-23T09:30:09;99574.09;;;9.00;100.00
68941;BME280;55982;51.476;7.552;2023-02-23T09:32:36;99574.03;;;9.02;100.00
68941;BME280;55982;51.476;7.552;2023-02-23T09:35:02;99575.94;;;8.97;100.00
68941;BME280;55982;51.476;7.552;2023-02-23T09:37:30;99576.97;;;8.91;100.00
68941;BME280;55982;51.476;7.552;2023-02-23T09:39:56;99583.19;;;8.87;100.00
68941;BME280;55982;51.476;7.552;2023-02-23T09:50:19;99592.25;;;9.03;100.00
68941;BME280;55982;51.476;7.552;2023-02-23T09:52:47;99591.38;;;9.03;100.00
68941;BME280;55982;51.476;7.552;2023-02-23T09:55:13;99592.97;;;9.08;100.00
68941;BME280;55982;51.476;7.552;2023-02-23T09:57:41;99586.66;;;9.15;100.00
68941;BME280;55982;51.476;7.552;2023-02-23T10:00:25;99598.03;;;9.13;100.00
68941;BME280;55982;51.476;7.552;2023-02-23T10:05:34;99598.16;;;9.64;100.00
68941;BME280;55982;51.476;7.552;2023-02-23T10:08:05;99598.84;;;9.69;100.00
68941;BME280;55982;51.476;7.552;2023-02-23T10:15:26;99585.63;;;9.47;100.00
68941;BME280;55982;51.476;7.552;2023-02-23T10:17:58;99590.16;;;9.42;100.00
68941;BME280;55982;51.476;7.552;2023-02-23T10:20:34;99587.91;;;9.32;100.00
68941;BME280;55982;51.476;7.552;2023-02-23T10:23:02;99600.34;;;9.23;100.00
68941;BME280;55982;51.476;7.552;2023-02-23T10:25:29;99603.84;;;9.22;100.00
68941;BME280;55982;51.476;7.552;2023-02-23T10:27:55;99612.00;;;9.12;100.00
68941;BME280;55982;51.476;7.552;2023-02-23T10:30:23;99612.84;;;9.12;100.00
68941;BME280;55982;51.476;7.552;2023-02-23T10:32:51;99611.25;;;9.08;100.00
68941;BME280;55982;51.476;7.552;2023-02-23T10:35:18;99617.06;;;9.16;100.00
68941;BME280;55982;51.476;7.552;2023-02-23T10:37:45;99616.19;;;9.17;100.00
68941;BME280;55982;51.476;7.552;2023-02-23T10:40:14;99613.38;;;9.23;100.00
68941;BME280;55982;51.476;7.552;2023-02-23T10:42:41;99607.25;;;9.24;100.00
68941;BME280;55982;51.476;7.552;2023-02-23T10:45:13;99614.38;;;9.19;100.00
68941;BME280;55982;51.476;7.552;2023-02-23T10:47:56;99610.22;;;9.40;100.00
68941;BME280;55982;51.476;7.552;2023-02-23T10:50:22;99598.84;;;9.69;100.00
68941;BME280;55982;51.476;7.552;2023-02-23T10:52:50;99597.91;;;9.71;100.00
68941;BME280;55982;51.476;7.552;2023-02-23T10:55:23;99599.94;;;9.88;100.00
68941;BME280;55982;51.476;7.552;2023-02-23T10:58:00;99604.28;;;9.87;100.00
68941;BME280;55982;51.476;7.552;2023-02-23T11:00:27;99596.44;;;9.89;100.00
68941;BME280;55982;51.476;7.552;2023-02-23T11:02:55;99600.53;;;9.96;100.00
68941;BME280;55982;51.476;7.552;2023-02-23T11:05:33;99602.53;;;9.88;100.00
68941;BME280;55982;51.476;7.552;2023-02-23T11:08:10;99604.88;;;9.97;100.00
68941;BME280;55982;51.476;7.552;2023-02-23T11:10:36;99602.75;;;9.82;100.00
68941;BME280;55982;51.476;7.552;2023-02-23T11:13:01;99601.56;;;9.66;100.00
68941;BME280;55982;51.476;7.552;2023-02-23T11:15:28;99601.66;;;9.37;100.00
68941;BME280;55982;51.476;7.552;2023-02-23T11:17:57;99606.91;;;9.07;100.00
68941;BME280;55982;51.476;7.552;2023-02-23T11:20:34;99613.81;;;9.10;100.00
68941;BME280;55982;51.476;7.552;2023-02-23T11:23:15;99605.75;;;9.17;100.00
68941;BME280;55982;51.476;7.552;2023-02-23T11:25:45;99617.88;;;9.18;100.00
68941;BME280;55982;51.476;7.552;2023-02-23T11:28:17;99614.44;;;9.16;100.00
68941;BME280;55982;51.476;7.552;2023-02-23T11:30:57;99619.41;;;9.26;100.00
68941;BME280;55982;51.476;7.552;2023-02-23T11:33:34;99610.03;;;9.20;100.00
68941;BME280;55982;51.476;7.552;2023-02-23T11:36:14;99611.03;;;9.14;100.00
68941;BME280;55982;51.476;7.552;2023-02-23T11:39:03;99611.25;;;9.08;100.00
68941;BME280;55982;51.476;7.552;2023-02-23T11:41:32;99610.16;;;9.15;100.00
68941;BME280;55982;51.476;7.552;2023-02-23T11:43:59;99608.25;;;8.91;100.00
68941;BME280;55982;51.476;7.552;2023-02-23T11:46:38;99609.22;;;8.89;100.00
68941;BME280;55982;51.476;7.552;2023-02-23T11:49:13;99604.94;;;8.86;100.00
68941;BME280;55982;51.476;7.552;2023-02-23T11:51:46;99606.69;;;8.87;100.00
68941;BME280;55982;51.476;7.552;2023-02-23T11:54:19;99600.25;;;8.97;100.00
68941;BME280;55982;51.476;7.552;2023-02-23T11:56:48;99601.75;;;9.06;100.00
68941;BME280;55982;51.476;7.552;2023-02-23T11:59:16;99600.19;;;9.00;100.00
68941;BME280;55982;51.476;7.552;2023-02-23T12:01:44;99598.03;;;8.85;100.00
68941;BME280;55982;51.476;7.552;2023-02-23T12:04:31;99610.09;;;8.89;100.00
68941;BME280;55982;51.476;7.552;2023-02-23T12:09:41;99610.28;;;8.83;100.00
68941;BME280;55982;51.476;7.552;2023-02-23T12:12:10;99604.59;;;8.69;100.00
68941;BME280;55982;51.476;7.552;2023-02-23T12:17:07;99597.63;;;8.70;100.00
68941;BME280;55982;51.476;7.552;2023-02-23T12:19:47;99601.50;;;8.57;100.00
68941;BME280;55982;51.476;7.552;2023-02-23T12:22:24;99598.56;;;8.67;100.00
68941;BME280;55982;51.476;7.552;2023-02-23T12:25:04;99602.44;;;8.54;100.00
68941;BME280;55982;51.476;7.552;2023-02-23T12:27:38;99598.78;;;8.60;100.00
68941;BME280;55982;51.476;7.552;2023-02-23T12:35:09;99594.97;;;8.71;100.00
68941;BME280;55982;51.476;7.552;2023-02-23T12:37:42;99602.44;;;8.83;100.00
68941;BME280;55982;51.476;7.552;2023-02-23T12:40:12;99599.22;;;8.75;100.00
68941;BME280;55982;51.476;7.552;2023-02-23T12:42:55;99600.09;;;8.74;100.00
68941;BME280;55982;51.476;7.552;2023-02-23T12:48:11;99595.84;;;8.70;100.00
68941;BME280;55982;51.476;7.552;2023-02-23T12:50:38;99606.94;;;8.78;100.00
68941;BME280;55982;51.476;7.552;2023-02-23T12:55:40;99606.28;;;8.99;100.00
68941;BME280;55982;51.476;7.552;2023-02-23T13:03:08;99592.63;;;8.91;100.00
68941;BME280;55982;51.476;7.552;2023-02-23T13:05:40;99603.03;;;8.91;100.00
68941;BME280;55982;51.476;7.552;2023-02-23T13:13:58;99613.34;;;8.36;100.00
68941;BME280;55982;51.476;7.552;2023-02-23T13:16:32;99622.09;;;8.35;100.00
68941;BME280;55982;51.476;7.552;2023-02-23T13:19:10;99617.09;;;8.26;100.00
68941;BME280;55982;51.476;7.552;2023-02-23T13:24:09;99608.41;;;8.27;100.00
68941;BME280;55982;51.476;7.552;2023-02-23T13:32:01;99609.34;;;8.24;100.00
68941;BME280;55982;51.476;7.552;2023-02-23T13:34:38;99610.09;;;8.28;100.00
68941;BME280;55982;51.476;7.552;2023-02-23T13:37:06;99609.16;;;8.30;100.00
68941;BME280;55982;51.476;7.552;2023-02-23T13:44:30;99611.13;;;8.53;100.00
68941;BME280;55982;51.476;7.552;2023-02-23T13:51:56;99615.50;;;8.83;100.00
68941;BME280;55982;51.476;7.552;2023-02-23T13:54:24;99615.66;;;8.77;100.00
68941;BME280;55982;51.476;7.552;2023-02-23T13:56:55;99617.47;;;8.75;100.00
68941;BME280;55982;51.476;7.552;2023-02-23T13:59:21;99621.06;;;8.71;100.00
68941;BME280;55982;51.476;7.552;2023-02-23T14:01:48;99642.25;;;8.59;100.00
68941;BME280;55982;51.476;7.552;2023-02-23T14:04:24;99631.19;;;8.51;100.00
68941;BME280;55982;51.476;7.552;2023-02-23T14:09:31;99627.03;;;8.44;100.00
68941;BME280;55982;51.476;7.552;2023-02-23T14:12:12;99634.97;;;8.40;100.00
68941;BME280;55982;51.476;7.552;2023-02-23T14:14:41;99631.84;;;8.27;100.00
68941;BME280;55982;51.476;7.552;2023-02-23T14:19:37;99634.84;;;8.12;100.00
68941;BME280;55982;51.476;7.552;2023-02-23T14:22:09;99625.91;;;7.88;100.00
68941;BME280;55982;51.476;7.552;2023-02-23T14:24:49;99634.09;;;8.07;100.00
68941;BME280;55982;51.476;7.552;2023-02-23T14:27:33;99644.78;;;7.96;100.00
68941;BME280;55982;51.476;7.552;2023-02-23T14:30:13;99631.56;;;8.04;100.00
68941;BME280;55982;51.476;7.552;2023-02-23T14:32:43;99630.06;;;7.95;100.00
68941;BME280;55982;51.476;7.552;2023-02-23T14:35:54;99630.06;;;7.95;100.00
68941;BME280;55982;51.476;7.552;2023-02-23T14:38:02;99633.53;;;7.96;100.00
68941;BME280;55982;51.476;7.552;2023-02-23T14:40:32;99643.44;;;7.82;100.00
68941;BME280;55982;51.476;7.552;2023-02-23T14:43:00;99642.84;;;7.71;100.00
68941;BME280;55982;51.476;7.552;2023-02-23T14:45:30;99646.41;;;7.67;100.00
68941;BME280;55982;51.476;7.552;2023-02-23T14:48:06;99649.19;;;7.61;100.00
68941;BME280;55982;51.476;7.552;2023-02-23T14:50:36;99645.75;;;7.57;100.00
68941;BME280;55982;51.476;7.552;2023-02-23T14:53:03;99639.88;;;7.51;100.00
68941;BME280;55982;51.476;7.552;2023-02-23T14:55:34;99645.84;;;7.54;100.00
68941;BME280;55982;51.476;7.552;2023-02-23T14:58:01;99645.06;;;7.51;100.00
68941;BME280;55982;51.476;7.552;2023-02-23T15:00:30;99649.91;;;7.66;100.00